Currently 78°F in Perris, California, USA
78°F
78°F / 66°F
2 mph W
0.00"
Monday, July 22, 2019 9:28 AM PDT

Perris, California Weather Summary
Last 36 Hours

Temperature Winds Hourly Humidity Dewpoint
Time Report Norm Report Norm Max Gusts Precip. Rpt. Norm Rpt. Norm Pressure
1,2Mon 09:28 AM  77.6°F  78°F  2 mph W  2 mph  6 mph  0.00"  60%  54%  62°F  59°F  29.97"
Mon 09:00 AM  75.5°F  76°F  3 mph NW  1 mph  5 mph  0.00"  66%  60%  63°F  60°F  29.98"
Mon 08:00 AM  71.3°F  70°F  3 mph SE  1 mph  none  0.00"  71%  71%  61°F  60°F  29.96"
Mon 07:00 AM  67.3°F  66°F  calm  1 mph  none  0.00"  83%  78%  62°F  58°F  29.95"
Mon 06:00 AM  65.8°F  66°F  calm  1 mph  3 mph  0.00"  85%  77%  61°F  58°F  29.94"
3Mon 05:45 AM  65.7°F  66°F  calm  1 mph  none  ----  85%  77%  61°F  58°F  29.94"
Mon 05:00 AM  66.5°F  66°F  1 mph N  1 mph  4 mph  0.00"  83%  76%  61°F  58°F  29.93"
Mon 04:00 AM  67.1°F  67°F  2 mph SW  1 mph  5 mph  0.00"  82%  74%  61°F  58°F  29.93"
Mon 03:00 AM  68.2°F  68°F  1 mph W  1 mph  5 mph  0.00"  78%  72%  61°F  58°F  29.94"
Mon 02:00 AM  69.4°F  69°F  3 mph NW  1 mph  6 mph  0.00"  73%  70%  60°F  58°F  29.94"
Mon 01:00 AM  70.2°F  70°F  calm  1 mph  4 mph  0.00"  70%  67%  59°F  58°F  29.93"
Mon 12:00 AM  72.3°F  71°F  3 mph W  2 mph  6 mph  0.00"  61%  63%  58°F  58°F  29.93"
Sun 11:00 PM  74.4°F  73°F  2 mph NW  2 mph  6 mph  0.00"  59%  60%  59°F  58°F  29.93"
Sun 10:00 PM  75.4°F  75°F  2 mph SE  2 mph  5 mph  0.00"  68%  55%  64°F  57°F  29.93"
Sun 09:00 PM  80.2°F  77°F  calm  4 mph  7 mph  0.00"  49%  50%  59°F  57°F  29.91"
Sun 08:00 PM  83.7°F  81°F  4 mph NW  4 mph  15 mph  0.00"  43%  43%  58°F  56°F  29.88"
Sun 07:00 PM  87.9°F  85°F  8 mph NW  6 mph  17 mph  0.00"  41%  36%  60°F  54°F  29.86"
Sun 06:00 PM  92.0°F  89°F  9 mph NW  7 mph  16 mph  0.00"  36%  32%  60°F  54°F  29.84"
Sun 05:00 PM  95.6°F  91°F  7 mph NW  7 mph  14 mph  0.00"  29%  30%  57°F  54°F  29.85"
Sun 04:00 PM  96.9°F  93°F  7 mph W  7 mph  14 mph  0.00"  28%  28%  58°F  54°F  29.87"
Sun 03:00 PM  95.9°F  93°F  7 mph NW  7 mph  13 mph  0.00"  27%  28%  55°F  54°F  29.88"
Sun 02:00 PM  94.9°F  93°F  9 mph W  6 mph  12 mph  0.00"  28%  27%  56°F  53°F  29.90"
Sun 01:00 PM  92.8°F  91°F  5 mph NW  5 mph  13 mph  0.00"  29%  28%  55°F  53°F  29.91"
Sun 12:00 PM  91.7°F  89°F  4 mph W  4 mph  8 mph  0.00"  32%  31%  57°F  54°F  29.93"
Sun 11:00 AM  85.6°F  85°F  2 mph SW  3 mph  7 mph  0.00"  42%  38%  59°F  56°F  29.93"
Sun 10:00 AM  79.5°F  81°F  1 mph W  2 mph  7 mph  0.00"  53%  48%  61°F  58°F  29.94"
Sun 09:00 AM  75.0°F  76°F  calm  1 mph  5 mph  0.00"  65%  59%  62°F  60°F  29.94"
Sun 08:00 AM  68.5°F  70°F  2 mph NW  1 mph  5 mph  0.00"  82%  71%  63°F  60°F  29.94"
Sun 07:00 AM  63.2°F  66°F  calm  1 mph  2 mph  0.00"  87%  77%  59°F  58°F  29.93"
Sun 06:00 AM  62.5°F  66°F  calm  1 mph  3 mph  0.00"  87%  77%  58°F  58°F  29.91"
Sun 05:00 AM  64.8°F  67°F  calm  1 mph  3 mph  0.00"  86%  75%  60°F  58°F  29.90"
Sun 04:00 AM  64.7°F  67°F  calm  1 mph  3 mph  0.00"  85%  73%  60°F  58°F  29.90"
Sun 03:00 AM  65.3°F  68°F  calm  1 mph  4 mph  0.00"  84%  72%  60°F  58°F  29.90"
Sun 02:00 AM  66.9°F  69°F  2 mph S  1 mph  3 mph  0.00"  81%  69%  61°F  58°F  29.91"
Sun 01:00 AM  66.7°F  70°F  calm  1 mph  none  0.00"  80%  66%  60°F  58°F  29.92"
Sun 12:00 AM  68.7°F  71°F  calm  2 mph  4 mph  0.00"  76%  63%  61°F  58°F  29.92"
Sat 11:00 PM  70.5°F  73°F  3 mph N  2 mph  6 mph  0.00"  73%  60%  61°F  58°F  29.90"
Sat 10:00 PM  72.0°F  75°F  2 mph W  2 mph  10 mph  0.00"  68%  55%  60°F  57°F  29.90"

  1. Current weather data. No green row appears if the current weather data is also the high or low for the current day.
  2. High temperature for the current day.
  3. Low temperature for the current day.

The Perris, California weather pages are a service of WeatherCurrents. Perris is located in Southern California's Inland Empire, south of Riverside and north of Sun City, along the Interstate 215 freeway.
Copyright ©2019  WeatherCurrents. All rights reserved. - Submit questions and comments - Privacy Policy

This page automatically refreshes every 10 minutes.